createdAt,value
2017-09-23T00:00:37.485Z,14.8
2017-09-23T00:01:46.351Z,14.83
2017-09-23T00:02:55.219Z,14.75
2017-09-23T00:04:03.759Z,14.8
2017-09-23T00:05:12.624Z,14.79
2017-09-23T00:06:21.491Z,14.83
2017-09-23T00:07:30.036Z,14.85
2017-09-23T00:08:38.577Z,14.83
2017-09-23T00:09:47.117Z,14.83
2017-09-23T00:10:55.659Z,14.82
2017-09-23T00:12:04.204Z,14.86
2017-09-23T00:13:12.751Z,14.71
2017-09-23T00:14:21.294Z,14.79
2017-09-23T00:15:30.161Z,14.9
2017-09-23T00:16:39.028Z,14.77
2017-09-23T00:17:48.212Z,14.87
2017-09-23T00:18:57.081Z,14.93
2017-09-23T00:20:05.953Z,14.8
2017-09-23T00:21:14.492Z,14.87
2017-09-23T00:22:23.413Z,14.8
2017-09-23T00:23:32.607Z,14.85
2017-09-23T00:24:41.150Z,14.89
2017-09-23T00:25:50.022Z,14.89
2017-09-23T00:26:59.717Z,14.94
2017-09-23T00:28:08.584Z,14.89
2017-09-23T00:29:17.451Z,14.97
2017-09-23T00:30:25.994Z,14.97
2017-09-23T00:31:34.542Z,15.07
2017-09-23T00:32:43.091Z,15.02
2017-09-23T00:33:52.607Z,15
2017-09-23T00:35:01.477Z,15.04
2017-09-23T00:36:10.022Z,15.13
2017-09-23T00:37:18.888Z,15.07
2017-09-23T00:38:27.757Z,15.1
2017-09-23T00:39:36.303Z,15.2
2017-09-23T00:40:45.168Z,15.15
2017-09-23T00:41:53.712Z,15.12
2017-09-23T00:43:02.582Z,15.16
2017-09-23T00:44:11.770Z,15.18
2017-09-23T00:45:20.635Z,15.18
2017-09-23T00:46:29.501Z,15.22
2017-09-23T00:47:38.048Z,15.31
2017-09-23T00:48:46.912Z,15.23
2017-09-23T00:49:55.783Z,15.33
2017-09-23T00:51:04.649Z,15.33
2017-09-23T00:52:13.528Z,15.34
2017-09-23T00:53:22.071Z,15.25
2017-09-23T00:54:30.935Z,15.27
2017-09-23T00:55:39.483Z,15.35
2017-09-23T00:56:48.030Z,15.34
2017-09-23T00:57:57.546Z,15.34
2017-09-23T00:59:06.410Z,15.34
2017-09-23T01:00:15.607Z,15.38
2017-09-23T01:01:24.149Z,15.3
2017-09-23T01:02:32.693Z,15.4
2017-09-23T01:03:41.558Z,15.33
2017-09-23T01:04:50.748Z,15.43
2017-09-23T01:05:59.941Z,15.37
2017-09-23T01:07:09.132Z,15.44
2017-09-23T01:08:18.000Z,15.38
2017-09-23T01:09:26.868Z,15.38
2017-09-23T01:10:35.738Z,15.4
2017-09-23T01:11:44.926Z,15.37
2017-09-23T01:12:53.794Z,15.41
2017-09-23T01:14:02.667Z,15.37
2017-09-23T01:15:11.209Z,15.43
2017-09-23T01:16:19.758Z,15.37
2017-09-23T01:17:28.629Z,15.33
2017-09-23T01:18:37.174Z,15.37
2017-09-23T01:19:46.362Z,15.34
2017-09-23T01:20:55.229Z,15.44
2017-09-23T01:22:04.096Z,15.34
2017-09-23T01:23:12.956Z,15.43
2017-09-23T01:24:21.501Z,15.41
2017-09-23T01:25:30.368Z,15.43
2017-09-23T01:26:39.234Z,15.47
2017-09-23T01:27:48.102Z,15.43
2017-09-23T01:28:56.668Z,15.43
2017-09-23T01:30:05.265Z,15.45
2017-09-23T01:31:14.129Z,15.44
2017-09-23T01:32:22.997Z,15.41
2017-09-23T01:33:32.512Z,15.4
2017-09-23T01:34:41.383Z,15.31
2017-09-23T01:35:50.252Z,15.34
2017-09-23T01:36:59.120Z,15.4
2017-09-23T01:38:07.989Z,15.34
2017-09-23T01:39:16.859Z,15.4
2017-09-23T01:40:25.728Z,15.47
2017-09-23T01:41:34.269Z,15.44
2017-09-23T01:42:43.138Z,15.43
2017-09-23T01:43:52.006Z,15.43
2017-09-23T01:45:00.551Z,15.47
2017-09-23T01:46:09.417Z,15.43
2017-09-23T01:47:18.287Z,15.4
2017-09-23T01:48:27.153Z,15.44
2017-09-23T01:49:36.017Z,15.49
2017-09-23T01:50:45.206Z,15.51
2017-09-23T01:51:53.749Z,15.44
2017-09-23T01:53:02.295Z,15.4
2017-09-23T01:54:11.163Z,15.45
2017-09-23T01:55:19.707Z,15.51
2017-09-23T01:56:29.215Z,15.49
2017-09-23T01:57:38.083Z,15.45
2017-09-23T01:58:47.271Z,15.45
2017-09-23T01:59:55.813Z,15.45
2017-09-23T02:01:04.359Z,15.41
2017-09-23T02:02:13.872Z,15.51
2017-09-23T02:03:22.738Z,15.38
2017-09-23T02:04:31.284Z,15.44
2017-09-23T02:05:40.152Z,15.4
2017-09-23T02:06:49.339Z,15.44
2017-09-23T02:07:57.887Z,15.45
2017-09-23T02:09:07.077Z,15.4
2017-09-23T02:10:15.942Z,15.51
2017-09-23T02:11:24.811Z,15.33
2017-09-23T02:12:33.679Z,15.4
2017-09-23T02:13:42.544Z,15.49
2017-09-23T02:14:51.411Z,15.43
2017-09-23T02:15:59.958Z,15.37
2017-09-23T02:17:08.506Z,15.34
2017-09-23T02:18:17.697Z,15.55
2017-09-23T02:19:26.241Z,15.43
2017-09-23T02:20:35.427Z,15.38
2017-09-23T02:21:44.296Z,15.44
2017-09-23T02:22:53.486Z,15.47
2017-09-23T02:24:02.036Z,15.49
2017-09-23T02:25:10.897Z,15.44
2017-09-23T02:26:19.447Z,15.4
2017-09-23T02:27:27.991Z,15.45
2017-09-23T02:28:36.861Z,15.45
2017-09-23T02:29:46.052Z,15.44
2017-09-23T02:30:54.916Z,15.49
2017-09-23T02:32:03.459Z,15.49
2017-09-23T02:33:12.328Z,15.51
2017-09-23T02:34:20.873Z,15.55
2017-09-23T02:35:29.743Z,15.44
2017-09-23T02:36:38.290Z,15.49
2017-09-23T02:37:47.158Z,15.52
2017-09-23T02:38:56.670Z,15.47
2017-09-23T02:40:05.538Z,15.45
2017-09-23T02:41:14.733Z,15.6
2017-09-23T02:42:23.619Z,15.52
2017-09-23T02:43:32.806Z,15.47
2017-09-23T02:44:41.673Z,15.52
2017-09-23T02:45:50.543Z,15.53
2017-09-23T02:46:59.088Z,15.47
2017-09-23T02:48:08.280Z,15.47
2017-09-23T02:49:17.144Z,15.55
2017-09-23T02:50:26.013Z,15.55
2017-09-23T02:51:34.558Z,15.44
2017-09-23T02:52:43.424Z,15.47
2017-09-23T02:53:52.617Z,15.53
2017-09-23T02:55:01.815Z,15.45
2017-09-23T02:56:10.688Z,15.37
2017-09-23T02:57:19.226Z,15.44
2017-09-23T02:58:28.094Z,15.41
2017-09-23T02:59:36.640Z,15.45
2017-09-23T03:00:45.181Z,15.53
2017-09-23T03:01:53.725Z,15.47
2017-09-23T03:03:02.910Z,15.43
2017-09-23T03:04:11.451Z,15.44
2017-09-23T03:05:19.996Z,15.41
2017-09-23T03:06:28.865Z,15.38
2017-09-23T03:07:37.409Z,15.41
2017-09-23T03:08:46.602Z,15.49
2017-09-23T03:09:55.466Z,15.38
2017-09-23T03:11:04.652Z,15.37
2017-09-23T03:12:13.192Z,15.43
2017-09-23T03:13:21.739Z,15.38
2017-09-23T03:14:30.606Z,15.45
2017-09-23T03:15:39.471Z,15.47
2017-09-23T03:16:48.338Z,15.45
2017-09-23T03:17:57.206Z,15.47
2017-09-23T03:19:06.086Z,15.44
2017-09-23T03:20:14.952Z,15.49
2017-09-23T03:21:23.504Z,15.49
2017-09-23T03:22:32.041Z,15.33
2017-09-23T03:23:40.909Z,15.49
2017-09-23T03:24:50.102Z,15.47
2017-09-23T03:25:59.294Z,15.49
2017-09-23T03:27:08.162Z,15.45
2017-09-23T03:28:16.705Z,15.47
2017-09-23T03:29:25.251Z,15.45
2017-09-23T03:30:34.119Z,15.49
2017-09-23T03:31:42.991Z,15.35
2017-09-23T03:32:51.534Z,15.41
2017-09-23T03:34:00.403Z,15.37
2017-09-23T03:35:09.270Z,15.4
2017-09-23T03:36:18.461Z,15.41
2017-09-23T03:37:27.651Z,15.45
2017-09-23T03:38:36.524Z,15.45
2017-09-23T03:39:45.070Z,15.4
2017-09-23T03:40:53.943Z,15.47
2017-09-23T03:42:02.810Z,15.44
2017-09-23T03:43:11.673Z,15.43
2017-09-23T03:44:20.540Z,15.34
2017-09-23T03:45:29.407Z,15.26
2017-09-23T03:46:38.273Z,15.26
2017-09-23T03:47:47.138Z,15.25
2017-09-23T03:48:56.335Z,15.31
2017-09-23T03:50:05.521Z,15.34
2017-09-23T03:51:14.387Z,15.27
2017-09-23T03:52:22.933Z,15.33
2017-09-23T03:53:32.119Z,15.23
2017-09-23T03:54:40.662Z,15.25
2017-09-23T03:55:49.206Z,15.33
2017-09-23T03:56:57.753Z,15.34
2017-09-23T03:58:06.296Z,15.27
2017-09-23T03:59:14.838Z,15.3
2017-09-23T04:00:23.383Z,15.3
2017-09-23T04:01:31.931Z,15.27
2017-09-23T04:02:40.801Z,15.26
2017-09-23T04:03:49.347Z,15.31
2017-09-23T04:04:57.892Z,15.27
2017-09-23T04:06:06.434Z,15.12
2017-09-23T04:07:15.306Z,15.23
2017-09-23T04:08:23.852Z,15.25
2017-09-23T04:09:32.400Z,15.15
2017-09-23T04:10:40.945Z,15.15
2017-09-23T04:11:49.810Z,15.07
2017-09-23T04:12:58.677Z,15.02
2017-09-23T04:14:07.225Z,15.02
2017-09-23T04:15:16.092Z,15.01
2017-09-23T04:16:25.279Z,15.02
2017-09-23T04:17:33.823Z,15.02
2017-09-23T04:18:42.370Z,15
2017-09-23T04:19:51.239Z,15
2017-09-23T04:21:00.437Z,15.02
2017-09-23T04:22:08.982Z,15
2017-09-23T04:23:18.499Z,15.04
2017-09-23T04:24:27.044Z,15.01
2017-09-23T04:25:35.586Z,15
2017-09-23T04:26:44.459Z,15.01
2017-09-23T04:27:53.002Z,15.05
2017-09-23T04:29:01.865Z,15.02
2017-09-23T04:30:10.728Z,15.04
2017-09-23T04:31:20.241Z,15.01
2017-09-23T04:32:29.100Z,15.01
2017-09-23T04:33:37.643Z,15.02
2017-09-23T04:34:46.508Z,15.01
2017-09-23T04:35:55.698Z,14.98
2017-09-23T04:37:04.245Z,14.94
2017-09-23T04:38:12.787Z,15.04
2017-09-23T04:39:21.652Z,15.02
2017-09-23T04:40:30.195Z,15.01
2017-09-23T04:41:38.834Z,15.01
2017-09-23T04:42:48.062Z,15
2017-09-23T04:43:56.608Z,14.98
2017-09-23T04:45:05.525Z,15.04
2017-09-23T04:46:14.486Z,15
2017-09-23T04:47:23.820Z,15
2017-09-23T04:48:33.011Z,15.02
2017-09-23T04:49:41.882Z,15.01
2017-09-23T04:50:50.920Z,15.02
2017-09-23T04:51:59.900Z,15
2017-09-23T04:53:08.742Z,15
2017-09-23T04:54:17.288Z,15
2017-09-23T04:55:26.479Z,14.93
2017-09-23T04:56:35.667Z,14.95
2017-09-23T04:57:44.216Z,14.89
2017-09-23T04:58:53.402Z,14.97
2017-09-23T05:00:02.269Z,14.9
2017-09-23T05:01:10.848Z,14.95
2017-09-23T05:02:19.680Z,14.95
2017-09-23T05:03:28.226Z,14.93
2017-09-23T05:04:37.094Z,14.97
2017-09-23T05:05:45.961Z,14.93
2017-09-23T05:06:54.857Z,14.93
2017-09-23T05:08:03.733Z,14.97
2017-09-23T05:09:12.278Z,14.97
2017-09-23T05:10:20.824Z,14.9
2017-09-23T05:11:29.694Z,14.97
2017-09-23T05:12:38.240Z,14.98
2017-09-23T05:13:46.833Z,14.97
2017-09-23T05:14:55.699Z,14.97
2017-09-23T05:16:04.562Z,14.89
2017-09-23T05:17:13.107Z,14.95
2017-09-23T05:18:21.977Z,14.97
2017-09-23T05:19:30.520Z,14.95
2017-09-23T05:20:39.064Z,14.97
2017-09-23T05:21:47.932Z,15.01
2017-09-23T05:22:56.797Z,15
2017-09-23T05:24:05.989Z,15
2017-09-23T05:25:15.180Z,14.97
2017-09-23T05:26:24.048Z,14.95
2017-09-23T05:27:32.914Z,14.98
2017-09-23T05:28:41.790Z,15.01
2017-09-23T05:29:50.332Z,15.02
2017-09-23T05:30:59.196Z,15.01
2017-09-23T05:32:08.063Z,14.98
2017-09-23T05:33:16.606Z,15.01
2017-09-23T05:34:25.473Z,15.05
2017-09-23T05:35:34.338Z,15.05
2017-09-23T05:36:42.883Z,14.98
2017-09-23T05:37:51.754Z,15.02
2017-09-23T05:39:00.619Z,15.05
2017-09-23T05:40:09.164Z,15.04
2017-09-23T05:41:18.352Z,15.1
2017-09-23T05:42:27.542Z,15.02
2017-09-23T05:43:36.412Z,15.02
2017-09-23T05:44:45.274Z,15.12
2017-09-23T05:45:53.869Z,15.04
2017-09-23T05:47:02.737Z,15.19
2017-09-23T05:48:11.283Z,15.07
2017-09-23T05:49:20.152Z,15.08
2017-09-23T05:50:29.022Z,15.1
2017-09-23T05:51:37.564Z,15.1
2017-09-23T05:52:46.431Z,15.12
2017-09-23T05:53:55.293Z,15.08
2017-09-23T05:55:04.159Z,15.08
2017-09-23T05:56:13.025Z,15.13
2017-09-23T05:57:21.888Z,15.12
2017-09-23T05:58:30.789Z,15.16
2017-09-23T05:59:39.654Z,15.15
2017-09-23T06:00:48.196Z,15.19
2017-09-23T06:01:57.063Z,15.18
2017-09-23T06:03:05.607Z,15.23
2017-09-23T06:04:14.798Z,15.19
2017-09-23T06:05:23.995Z,15.2
2017-09-23T06:06:33.688Z,15.19
2017-09-23T06:07:42.235Z,15.18
2017-09-23T06:08:50.774Z,15.2
2017-09-23T06:09:59.969Z,15.22
2017-09-23T06:11:09.156Z,15.27
2017-09-23T06:12:18.022Z,15.25
2017-09-23T06:13:27.217Z,15.27
2017-09-23T06:14:36.432Z,15.31
2017-09-23T06:15:44.976Z,15.27
2017-09-23T06:16:53.519Z,15.31
2017-09-23T06:18:02.069Z,15.27
2017-09-23T06:19:10.936Z,15.31
2017-09-23T06:20:19.805Z,15.38
2017-09-23T06:21:28.670Z,15.34
2017-09-23T06:22:37.216Z,15.41
2017-09-23T06:23:46.403Z,15.37
2017-09-23T06:24:54.947Z,15.38
2017-09-23T06:26:03.814Z,15.37
2017-09-23T06:27:13.018Z,15.38
2017-09-23T06:28:21.888Z,15.41
2017-09-23T06:29:30.755Z,15.45
2017-09-23T06:30:39.950Z,15.37
2017-09-23T06:31:49.146Z,15.45
2017-09-23T06:32:58.011Z,15.37
2017-09-23T06:34:07.228Z,15.4
2017-09-23T06:35:16.096Z,15.37
2017-09-23T06:36:24.971Z,15.51
2017-09-23T06:37:34.140Z,15.43
2017-09-23T06:38:43.006Z,15.49
2017-09-23T06:39:51.868Z,15.44
2017-09-23T06:41:01.068Z,15.43
2017-09-23T06:42:09.612Z,15.47
2017-09-23T06:43:18.477Z,15.47
2017-09-23T06:44:27.023Z,15.44
2017-09-23T06:45:35.564Z,15.51
2017-09-23T06:46:44.110Z,15.58
2017-09-23T06:47:52.981Z,15.62
2017-09-23T06:49:01.848Z,15.55
2017-09-23T06:50:10.392Z,15.52
2017-09-23T06:51:19.593Z,15.55
2017-09-23T06:52:28.785Z,15.49
2017-09-23T06:53:37.330Z,15.56
2017-09-23T06:54:45.874Z,15.44
2017-09-23T06:55:55.058Z,15.52
2017-09-23T06:57:03.929Z,15.56
2017-09-23T06:58:12.478Z,15.47
2017-09-23T06:59:21.345Z,15.51
2017-09-23T07:00:30.535Z,15.59
2017-09-23T07:01:39.405Z,15.55
2017-09-23T07:02:48.270Z,15.58
2017-09-23T07:03:57.143Z,15.6
2017-09-23T07:05:06.019Z,15.59
2017-09-23T07:06:14.564Z,15.63
2017-09-23T07:07:24.079Z,15.63
2017-09-23T07:08:32.950Z,15.6
2017-09-23T07:09:42.470Z,15.7
2017-09-23T07:10:51.030Z,15.59
2017-09-23T07:11:59.562Z,15.63
2017-09-23T07:13:08.762Z,15.74
2017-09-23T07:14:17.629Z,15.67
2017-09-23T07:15:26.495Z,15.65
2017-09-23T07:16:35.041Z,15.7
2017-09-23T07:17:43.910Z,15.75
2017-09-23T07:18:52.781Z,15.81
2017-09-23T07:20:01.647Z,15.83
2017-09-23T07:21:10.517Z,15.75
2017-09-23T07:22:19.059Z,15.77
2017-09-23T07:23:27.604Z,15.8
2017-09-23T07:24:36.471Z,15.78
2017-09-23T07:25:45.335Z,15.8
2017-09-23T07:26:54.208Z,15.78
2017-09-23T07:28:02.763Z,15.83
2017-09-23T07:29:11.632Z,15.78
2017-09-23T07:30:20.176Z,15.86
2017-09-23T07:31:28.722Z,15.88
2017-09-23T07:32:37.263Z,15.88
2017-09-23T07:33:46.136Z,15.8
2017-09-23T07:34:55.005Z,15.84
2017-09-23T07:36:03.551Z,15.84
2017-09-23T07:37:12.093Z,15.84
2017-09-23T07:38:20.966Z,15.83
2017-09-23T07:39:29.837Z,15.91
2017-09-23T07:40:38.380Z,15.95
2017-09-23T07:41:47.294Z,15.96
2017-09-23T07:42:55.841Z,15.98
2017-09-23T07:44:04.386Z,16.02
2017-09-23T07:45:13.255Z,16.06
2017-09-23T07:46:22.121Z,16.13
2017-09-23T07:47:30.988Z,16.17
2017-09-23T07:48:39.861Z,16.32
2017-09-23T07:49:48.404Z,16.21
2017-09-23T07:50:58.723Z,16.3
2017-09-23T07:52:07.913Z,16.45
2017-09-23T07:53:16.457Z,16.52
2017-09-23T07:54:25.006Z,16.48
2017-09-23T07:55:33.879Z,16.55
2017-09-23T07:56:42.432Z,16.65
2017-09-23T07:57:50.981Z,16.69
2017-09-23T07:58:59.523Z,16.74
2017-09-23T08:00:08.390Z,16.81
2017-09-23T08:01:16.932Z,16.81
2017-09-23T08:02:26.128Z,16.9
2017-09-23T08:03:35.004Z,16.91
2017-09-23T08:04:43.551Z,17.02
2017-09-23T08:05:52.095Z,17.07
2017-09-23T08:07:00.966Z,17.07
2017-09-23T08:08:09.833Z,17.03
2017-09-23T08:09:18.380Z,17
2017-09-23T08:10:26.935Z,17.03
2017-09-23T08:11:35.832Z,17.03
2017-09-23T08:12:45.100Z,17.12
2017-09-23T08:13:54.304Z,17.07
2017-09-23T08:15:02.861Z,17.15
2017-09-23T08:16:11.422Z,17.15
2017-09-23T08:17:20.980Z,17.25
2017-09-23T08:18:29.538Z,17.24
2017-09-23T08:19:38.413Z,17.36
2017-09-23T08:20:47.293Z,17.24
2017-09-23T08:21:56.159Z,17.22
2017-09-23T08:23:05.027Z,17.15
2017-09-23T08:24:13.898Z,17.12
2017-09-23T08:25:22.769Z,17.02
2017-09-23T08:26:31.958Z,17.06
2017-09-23T08:27:40.501Z,17
2017-09-23T08:28:49.048Z,17
2017-09-23T08:29:57.592Z,17
2017-09-23T08:31:06.462Z,17.07
2017-09-23T08:32:15.007Z,17.15
2017-09-23T08:33:24.197Z,17.15
2017-09-23T08:34:32.748Z,17.18
2017-09-23T08:35:41.612Z,17.17
2017-09-23T08:36:50.482Z,17.12
2017-09-23T08:37:59.676Z,17.12
2017-09-23T08:39:08.544Z,17.13
2017-09-23T08:40:17.734Z,17.13
2017-09-23T08:41:26.278Z,17.17
2017-09-23T08:42:34.827Z,17.13
2017-09-23T08:43:43.698Z,17.07
2017-09-23T08:44:52.566Z,17.07
2017-09-23T08:46:01.110Z,16.99
2017-09-23T08:47:09.979Z,16.95
2017-09-23T08:48:19.172Z,17.03
2017-09-23T08:49:27.719Z,17.13
2017-09-23T08:50:36.586Z,17.24
2017-09-23T08:51:45.783Z,17.49
2017-09-23T08:52:54.977Z,17.58
2017-09-23T08:54:03.843Z,17.69
2017-09-23T08:55:13.033Z,17.83
2017-09-23T08:56:21.907Z,17.94
2017-09-23T08:57:30.794Z,17.95
2017-09-23T08:58:39.664Z,18.05
2017-09-23T08:59:48.857Z,18.03
2017-09-23T09:00:57.726Z,18.03
2017-09-23T09:02:06.598Z,18.11
2017-09-23T09:03:15.146Z,18.14
2017-09-23T09:04:24.038Z,18.16
2017-09-23T09:05:32.562Z,18.14
2017-09-23T09:06:41.760Z,18.17
2017-09-23T09:07:50.305Z,18.16
2017-09-23T09:08:59.175Z,18.16
2017-09-23T09:10:07.720Z,18.17
2017-09-23T09:11:16.270Z,18.21
2017-09-23T09:12:25.141Z,18.29
2017-09-23T09:13:34.011Z,18.27
2017-09-23T09:14:42.558Z,18.2
2017-09-23T09:15:51.106Z,18.14
2017-09-23T09:17:00.298Z,18.16
2017-09-23T09:18:09.171Z,18.1
2017-09-23T09:19:17.719Z,18.2
2017-09-23T09:20:26.586Z,18.27
2017-09-23T09:21:35.456Z,18.35
2017-09-23T09:22:44.325Z,18.38
2017-09-23T09:23:52.874Z,18.47
2017-09-23T09:25:01.743Z,18.54
2017-09-23T09:26:10.292Z,18.54
2017-09-23T09:27:19.163Z,18.6
2017-09-23T09:28:28.031Z,18.63
2017-09-23T09:29:36.576Z,18.53
2017-09-23T09:30:45.770Z,18.66
2017-09-23T09:31:54.318Z,18.69
2017-09-23T09:33:02.866Z,18.68
2017-09-23T09:34:11.415Z,18.76
2017-09-23T09:35:19.962Z,18.61
2017-09-23T09:36:28.832Z,18.65
2017-09-23T09:37:37.381Z,18.75
2017-09-23T09:38:45.928Z,18.79
2017-09-23T09:39:54.473Z,18.79
2017-09-23T09:41:03.669Z,18.82
2017-09-23T09:42:12.861Z,18.94
2017-09-23T09:43:21.404Z,18.93
2017-09-23T09:44:29.955Z,19.05
2017-09-23T09:45:38.829Z,19.06
2017-09-23T09:46:47.379Z,19.07
2017-09-23T09:47:55.925Z,18.99
2017-09-23T09:49:04.793Z,19.17
2017-09-23T09:50:13.662Z,19.2
2017-09-23T09:51:22.528Z,19.27
2017-09-23T09:52:31.079Z,19.2
2017-09-23T09:53:40.272Z,19.3
2017-09-23T09:54:49.143Z,19.32
2017-09-23T09:55:58.012Z,19.15
2017-09-23T09:57:07.213Z,18.96
2017-09-23T09:58:16.083Z,18.94
2017-09-23T09:59:24.955Z,18.82
2017-09-23T10:00:33.823Z,18.81
2017-09-23T10:01:42.694Z,18.74
2017-09-23T10:02:51.894Z,18.76
2017-09-23T10:04:00.763Z,18.76
2017-09-23T10:05:09.634Z,18.78
2017-09-23T10:06:18.508Z,18.74
2017-09-23T10:07:27.380Z,18.76
2017-09-23T10:08:36.249Z,18.84
2017-09-23T10:09:44.796Z,18.93
2017-09-23T10:10:53.983Z,19.02
2017-09-23T10:12:02.856Z,19.05
2017-09-23T10:13:11.727Z,19.12
2017-09-23T10:14:20.917Z,19.13
2017-09-23T10:15:29.790Z,19.28
2017-09-23T10:16:38.985Z,19.19
2017-09-23T10:17:47.534Z,19.23
2017-09-23T10:18:56.083Z,19.16
2017-09-23T10:20:05.277Z,19.15
2017-09-23T10:21:14.148Z,19.1
2017-09-23T10:22:23.023Z,18.99
2017-09-23T10:23:31.570Z,19.06
2017-09-23T10:24:40.447Z,18.9
2017-09-23T10:25:48.991Z,18.86
2017-09-23T10:26:57.861Z,18.69
2017-09-23T10:28:06.411Z,18.54
2017-09-23T10:29:15.286Z,18.51
2017-09-23T10:30:24.161Z,18.47
2017-09-23T10:31:33.364Z,18.32
2017-09-23T10:32:42.242Z,18.17
2017-09-23T10:33:50.794Z,18.2
2017-09-23T10:34:59.341Z,18.11
2017-09-23T10:36:07.890Z,18.08
2017-09-23T10:37:16.774Z,17.99
2017-09-23T10:38:25.975Z,18.02
2017-09-23T10:39:34.524Z,18.02
2017-09-23T10:40:43.074Z,18.03
2017-09-23T10:41:51.626Z,18.02
2017-09-23T10:43:00.230Z,18.06
2017-09-23T10:44:08.777Z,17.99
2017-09-23T10:45:17.646Z,18.14
2017-09-23T10:46:26.201Z,18.14
2017-09-23T10:47:34.744Z,18.2
2017-09-23T10:48:43.935Z,18.13
2017-09-23T10:49:52.812Z,18.17
2017-09-23T10:51:01.680Z,18.24
2017-09-23T10:52:10.227Z,18.34
2017-09-23T10:53:18.775Z,18.35
2017-09-23T10:54:27.964Z,18.39
2017-09-23T10:55:36.831Z,18.42
2017-09-23T10:56:45.706Z,18.44
2017-09-23T10:57:54.249Z,18.47
2017-09-23T10:59:02.794Z,18.49
2017-09-23T11:00:11.544Z,18.44
2017-09-23T11:01:20.093Z,18.35
2017-09-23T11:02:28.961Z,18.38
2017-09-23T11:03:37.830Z,18.35
2017-09-23T11:04:46.374Z,18.38
2017-09-23T11:05:54.921Z,18.39
2017-09-23T11:07:03.471Z,18.47
2017-09-23T11:08:12.338Z,18.38
2017-09-23T11:09:20.883Z,18.36
2017-09-23T11:10:29.752Z,18.26
2017-09-23T11:11:38.301Z,18.16
2017-09-23T11:12:47.178Z,18.11
2017-09-23T11:13:56.047Z,18.16
2017-09-23T11:15:04.593Z,18.17
2017-09-23T11:16:13.141Z,18.23
2017-09-23T11:17:21.686Z,18.2
2017-09-23T11:18:30.231Z,18.21
2017-09-23T11:19:39.426Z,18.11
2017-09-23T11:20:48.294Z,18.27
2017-09-23T11:21:57.483Z,18.17
2017-09-23T11:23:06.352Z,18.11
2017-09-23T11:24:14.920Z,18.19
2017-09-23T11:25:23.841Z,18.23
2017-09-23T11:26:32.386Z,18.2
2017-09-23T11:27:40.931Z,18.26
2017-09-23T11:28:49.803Z,18.32
2017-09-23T11:29:58.675Z,18.27
2017-09-23T11:31:07.545Z,18.24
2017-09-23T11:32:16.736Z,18.16
2017-09-23T11:33:25.283Z,18.16
2017-09-23T11:34:34.474Z,18.08
2017-09-23T11:35:43.993Z,18.03
2017-09-23T11:36:52.544Z,18.06
2017-09-23T11:38:01.104Z,18.11
2017-09-23T11:39:09.854Z,18.02
2017-09-23T11:40:19.025Z,18.03
2017-09-23T11:41:27.569Z,18.1
2017-09-23T11:42:36.454Z,18.14
2017-09-23T11:43:45.320Z,18.14
2017-09-23T11:44:54.183Z,18.16
2017-09-23T11:46:02.728Z,18.16
2017-09-23T11:47:11.277Z,18.17
2017-09-23T11:48:20.149Z,18.14
2017-09-23T11:49:29.010Z,18.1
2017-09-23T11:50:37.558Z,18.05
2017-09-23T11:51:46.260Z,18.14
2017-09-23T11:52:54.812Z,18.03
2017-09-23T11:54:03.357Z,18.16
2017-09-23T11:55:11.906Z,18.14
2017-09-23T11:56:20.777Z,18.11
2017-09-23T11:57:29.648Z,18.17
2017-09-23T11:58:38.194Z,18.14
2017-09-23T11:59:46.738Z,18.17
2017-09-23T12:00:55.615Z,18.14
2017-09-23T12:02:04.486Z,18.29
2017-09-23T12:03:13.032Z,18.23
2017-09-23T12:04:21.579Z,18.19
2017-09-23T12:05:30.448Z,18.23
2017-09-23T12:06:39.320Z,18.27
2017-09-23T12:07:48.191Z,18.35
2017-09-23T12:08:57.068Z,18.29
2017-09-23T12:10:05.622Z,18.27
2017-09-23T12:11:14.166Z,18.29
2017-09-23T12:12:23.038Z,18.24
2017-09-23T12:13:31.634Z,18.31
2017-09-23T12:14:40.188Z,18.34
2017-09-23T12:15:49.190Z,18.34
2017-09-23T12:16:57.736Z,18.29
2017-09-23T12:18:06.282Z,18.16
2017-09-23T12:19:15.151Z,18.16
2017-09-23T12:20:23.695Z,18.16
2017-09-23T12:21:32.241Z,18.17
2017-09-23T12:22:41.116Z,18.34
2017-09-23T12:23:49.664Z,18.36
2017-09-23T12:24:58.853Z,18.32
2017-09-23T12:26:07.721Z,18.41
2017-09-23T12:27:16.590Z,18.57
2017-09-23T12:28:25.460Z,18.69
2017-09-23T12:29:34.326Z,18.68
2017-09-23T12:30:42.876Z,18.81
2017-09-23T12:31:51.419Z,18.9
2017-09-23T12:33:00.287Z,18.97
2017-09-23T12:34:08.836Z,18.93
2017-09-23T12:35:17.380Z,18.87
2017-09-23T12:36:25.928Z,18.97
2017-09-23T12:37:34.800Z,18.87
2017-09-23T12:38:43.348Z,18.87
2017-09-23T12:39:52.218Z,18.91
2017-09-23T12:41:01.088Z,18.93
2017-09-23T12:42:09.635Z,18.89
2017-09-23T12:43:18.830Z,18.93
2017-09-23T12:44:27.702Z,18.9
2017-09-23T12:45:36.577Z,18.82
2017-09-23T12:46:45.123Z,18.82
2017-09-23T12:47:53.674Z,18.82
2017-09-23T12:49:02.540Z,18.79
2017-09-23T12:50:11.088Z,18.86
2017-09-23T12:51:19.960Z,18.82
2017-09-23T12:52:28.508Z,18.79
2017-09-23T12:53:37.700Z,18.81
2017-09-23T12:54:46.248Z,18.81
2017-09-23T12:55:54.795Z,18.81
2017-09-23T12:57:03.989Z,18.76
2017-09-23T12:58:12.533Z,18.71
2017-09-23T12:59:21.084Z,18.74
2017-09-23T13:00:29.630Z,18.74
2017-09-23T13:01:38.504Z,18.78
2017-09-23T13:02:47.049Z,18.79
2017-09-23T13:03:58.537Z,18.79
2017-09-23T13:05:07.404Z,18.79
2017-09-23T13:06:16.273Z,18.84
2017-09-23T13:07:24.824Z,18.74
2017-09-23T13:08:33.694Z,18.81
2017-09-23T13:09:42.569Z,18.74
2017-09-23T13:10:51.436Z,18.75
2017-09-23T13:11:59.982Z,18.66
2017-09-23T13:13:08.865Z,18.66
2017-09-23T13:14:17.409Z,18.74
2017-09-23T13:15:27.316Z,18.69
2017-09-23T13:16:36.370Z,18.72
2017-09-23T13:17:45.274Z,18.71
2017-09-23T13:18:54.823Z,18.78
2017-09-23T13:20:03.710Z,18.78
2017-09-23T13:21:12.318Z,18.78
2017-09-23T13:22:20.875Z,18.71
2017-09-23T13:23:29.423Z,18.76
2017-09-23T13:24:37.972Z,18.76
2017-09-23T13:25:46.516Z,18.86
2017-09-23T13:26:55.385Z,18.72
2017-09-23T13:28:03.929Z,18.66
2017-09-23T13:29:12.476Z,18.72
2017-09-23T13:30:21.347Z,18.69
2017-09-23T13:31:29.892Z,18.66
2017-09-23T13:32:38.436Z,18.57
2017-09-23T13:33:47.311Z,18.56
2017-09-23T13:34:55.857Z,18.59
2017-09-23T13:36:05.059Z,18.63
2017-09-23T13:37:13.606Z,18.68
2017-09-23T13:38:22.478Z,18.78
2017-09-23T13:39:31.355Z,18.71
2017-09-23T13:40:40.868Z,18.75
2017-09-23T13:41:49.738Z,18.82
2017-09-23T13:42:58.607Z,18.87
2017-09-23T13:44:07.804Z,18.66
2017-09-23T13:45:16.997Z,18.66
2017-09-23T13:46:25.878Z,18.82
2017-09-23T13:47:34.744Z,18.81
2017-09-23T13:48:43.289Z,18.79
2017-09-23T13:49:51.836Z,18.81
2017-09-23T13:51:00.383Z,18.86
2017-09-23T13:52:09.251Z,18.82
2017-09-23T13:53:18.125Z,18.86
2017-09-23T13:54:26.995Z,18.9
2017-09-23T13:55:36.509Z,18.97
2017-09-23T13:56:45.383Z,18.96
2017-09-23T13:57:54.253Z,18.93
2017-09-23T13:59:02.798Z,19
2017-09-23T14:00:11.670Z,19.05
2017-09-23T14:01:20.215Z,19.02
2017-09-23T14:02:28.761Z,18.96
2017-09-23T14:03:37.956Z,19.1
2017-09-23T14:04:47.157Z,19.1
2017-09-23T14:05:56.022Z,19.09
2017-09-23T14:07:05.214Z,19.17
2017-09-23T14:08:14.093Z,19.23
2017-09-23T14:09:22.964Z,19.25
2017-09-23T14:10:31.512Z,19.2
2017-09-23T14:11:40.856Z,19.19
2017-09-23T14:12:49.401Z,19.24
2017-09-23T14:13:57.949Z,19.19
2017-09-23T14:15:06.494Z,19.27
2017-09-23T14:16:15.363Z,19.25
2017-09-23T14:17:24.234Z,19.09
2017-09-23T14:18:33.726Z,19.23
2017-09-23T14:19:42.594Z,19.12
2017-09-23T14:20:51.466Z,19.02
2017-09-23T14:22:00.663Z,18.99
2017-09-23T14:23:09.210Z,18.89
2017-09-23T14:24:18.087Z,18.89
2017-09-23T14:25:26.636Z,18.84
2017-09-23T14:26:35.830Z,18.78
2017-09-23T14:27:45.025Z,18.72
2017-09-23T14:28:54.233Z,18.72
2017-09-23T14:30:03.421Z,18.71
2017-09-23T14:31:11.970Z,18.68
2017-09-23T14:32:20.836Z,18.72
2017-09-23T14:33:29.384Z,18.68
2017-09-23T14:34:38.251Z,18.68
2017-09-23T14:35:46.796Z,18.59
2017-09-23T14:36:55.342Z,18.59
2017-09-23T14:38:03.897Z,18.57
2017-09-23T14:39:12.771Z,18.51
2017-09-23T14:40:21.318Z,18.6
2017-09-23T14:41:30.188Z,18.53
2017-09-23T14:42:39.404Z,18.54
2017-09-23T14:43:47.925Z,18.56
2017-09-23T14:44:56.794Z,18.51
2017-09-23T14:46:05.343Z,18.57
2017-09-23T14:47:13.894Z,18.5
2017-09-23T14:48:22.440Z,18.5
2017-09-23T14:49:30.990Z,18.51
2017-09-23T14:50:39.539Z,18.54